createdAt,value
2017-11-08T00:00:40.731Z,7.90
2017-11-08T00:10:44.012Z,7.90
2017-11-08T00:20:47.209Z,7.90
2017-11-08T00:30:50.569Z,7.90
2017-11-08T00:40:53.767Z,7.90
2017-11-08T00:50:57.031Z,7.90
2017-11-08T01:01:00.257Z,7.80
2017-11-08T01:11:03.492Z,7.80
2017-11-08T01:21:06.710Z,7.70
2017-11-08T01:31:09.900Z,7.70
2017-11-08T01:41:18.955Z,7.70
2017-11-08T01:51:23.062Z,7.70
2017-11-08T02:01:27.037Z,7.60
2017-11-08T02:11:30.239Z,7.60
2017-11-08T02:21:33.455Z,7.60
2017-11-08T02:31:36.634Z,7.60
2017-11-08T02:41:40.606Z,7.60
2017-11-08T02:51:43.804Z,7.70
2017-11-08T03:01:47.008Z,7.60
2017-11-08T03:11:50.843Z,7.60
2017-11-08T03:21:54.037Z,7.70
2017-11-08T03:31:57.246Z,7.70
2017-11-08T03:42:00.436Z,7.70
2017-11-08T03:52:04.410Z,7.80
2017-11-08T04:02:07.585Z,7.80
2017-11-08T04:12:10.791Z,7.80
2017-11-08T04:22:13.973Z,7.70
2017-11-08T04:32:17.172Z,7.60
2017-11-08T04:42:20.382Z,7.60
2017-11-08T04:52:24.338Z,7.40
2017-11-08T05:02:27.570Z,7.40
2017-11-08T05:12:31.579Z,7.40
2017-11-08T05:22:34.846Z,7.40
2017-11-08T05:32:38.098Z,7.50
2017-11-08T05:42:42.442Z,7.30
2017-11-08T05:52:45.649Z,7.30
2017-11-08T06:02:48.843Z,7.30
2017-11-08T06:12:52.813Z,7.20
2017-11-08T06:22:56.127Z,7.20
2017-11-08T06:32:59.490Z,7.10
2017-11-08T06:43:03.472Z,7.20
2017-11-08T06:53:06.682Z,7.20
2017-11-08T07:03:10.668Z,7.30
2017-11-08T07:13:13.847Z,7.50
2017-11-08T07:23:17.062Z,7.40
2017-11-08T07:33:20.269Z,7.90
2017-11-08T07:43:23.471Z,7.70
2017-11-08T07:53:26.682Z,7.60
2017-11-08T08:03:29.870Z,7.40
2017-11-08T08:13:33.190Z,7.40
2017-11-08T08:23:37.188Z,7.50
2017-11-08T08:33:40.410Z,7.50
2017-11-08T08:43:43.684Z,7.60
2017-11-08T08:53:46.932Z,7.60
2017-11-08T09:03:50.328Z,7.60
2017-11-08T09:13:53.601Z,7.70
2017-11-08T09:23:59.670Z,7.60
2017-11-08T09:34:02.906Z,7.70
2017-11-08T09:44:06.878Z,7.80
2017-11-08T09:54:10.106Z,7.80
2017-11-08T10:04:13.341Z,7.80
2017-11-08T10:14:16.546Z,7.80
2017-11-08T10:24:19.807Z,7.80
2017-11-08T10:34:23.790Z,8.20
2017-11-08T10:44:27.028Z,8.20
2017-11-08T10:54:30.987Z,7.90
2017-11-08T11:04:34.200Z,8.00
2017-11-08T11:14:37.472Z,8.00
2017-11-08T11:24:41.644Z,8.10
2017-11-08T11:34:44.817Z,8.20
2017-11-08T11:44:48.023Z,8.20
2017-11-08T11:54:51.206Z,8.30
2017-11-08T12:04:54.391Z,8.20
2017-11-08T12:14:57.599Z,8.20
2017-11-08T12:25:00.792Z,8.30
2017-11-08T12:35:06.860Z,8.30
2017-11-08T12:45:16.243Z,8.30
2017-11-08T12:55:19.424Z,8.30
2017-11-08T13:05:34.967Z,8.40
2017-11-08T13:15:38.391Z,8.40
2017-11-08T13:25:41.571Z,8.50
2017-11-08T13:35:44.765Z,8.50
2017-11-08T13:45:49.748Z,8.60
2017-11-08T13:55:52.899Z,8.60
2017-11-08T14:05:56.865Z,8.50
2017-11-08T14:16:00.076Z,8.50
2017-11-08T14:26:03.314Z,8.50
2017-11-08T14:36:09.414Z,8.50
2017-11-08T14:46:12.624Z,8.40
2017-11-08T14:56:15.823Z,8.30
2017-11-08T15:06:19.028Z,8.40
2017-11-08T15:16:22.253Z,8.40
2017-11-08T15:26:25.615Z,8.40
2017-11-08T15:36:28.811Z,8.40
2017-11-08T15:46:32.116Z,8.30
2017-11-08T15:56:36.089Z,8.20
2017-11-08T16:06:39.311Z,8.20
2017-11-08T16:16:43.276Z,8.40
2017-11-08T16:26:46.491Z,8.40
2017-11-08T16:36:49.746Z,8.40
2017-11-08T16:46:53.708Z,8.20
2017-11-08T16:56:57.043Z,8.20
2017-11-08T17:07:01.018Z,8.20
2017-11-08T17:17:04.228Z,8.20
2017-11-08T17:27:08.253Z,8.20
2017-11-08T17:37:11.424Z,8.20
2017-11-08T17:47:15.495Z,8.20
2017-11-08T17:57:18.745Z,8.20
2017-11-08T18:07:21.940Z,8.20
2017-11-08T18:17:25.163Z,8.20
2017-11-08T18:27:28.393Z,8.20
2017-11-08T18:37:31.619Z,8.20
2017-11-08T18:47:34.848Z,8.30
2017-11-08T18:57:38.245Z,8.20
2017-11-08T19:07:41.480Z,8.30
2017-11-08T19:17:44.732Z,8.20
2017-11-08T19:27:48.721Z,8.20
2017-11-08T19:37:51.968Z,8.20
2017-11-08T19:47:55.184Z,8.20
2017-11-08T19:57:58.413Z,8.20
2017-11-08T20:08:01.621Z,8.20
2017-11-08T20:18:04.813Z,8.10
2017-11-08T20:28:08.055Z,8.00
2017-11-08T20:38:11.295Z,8.00
2017-11-08T20:48:14.704Z,8.10
2017-11-08T20:58:18.765Z,8.10
2017-11-08T21:08:22.004Z,8.10
2017-11-08T21:18:26.072Z,8.00
2017-11-08T21:28:29.313Z,8.00
2017-11-08T21:38:32.653Z,8.10
2017-11-08T21:48:35.859Z,8.10
2017-11-08T21:58:39.054Z,8.20
2017-11-08T22:08:42.274Z,8.20
2017-11-08T22:18:45.499Z,8.10
2017-11-08T22:28:48.882Z,8.00
2017-11-08T22:38:52.088Z,8.00
2017-11-08T22:48:55.303Z,8.00
2017-11-08T22:58:59.252Z,8.20
2017-11-08T23:09:03.190Z,8.10
2017-11-08T23:19:06.494Z,8.10
2017-11-08T23:29:09.678Z,8.00
2017-11-08T23:39:13.827Z,8.00
2017-11-08T23:49:17.788Z,8.10
2017-11-08T23:59:27.428Z,8.10
